Time;durP1;ratioP1;P1;durP2;ratioP2;P2;SDS_P1;SDS_P2;PMS_P1;PMS_P2;Temp;Humidity;BMP_temperature;BMP_pressure;BME280_temperature;BME280_humidity;BME280_pressure;Samples;Min_cycle;Max_cycle;Signal;HPM_P1;HPM_P2
2021/12/27 00:02:10;;;;;;;26.27;13.20;;;;;;;1.90;50.69;99524.53;4371697;32;33142;-78
2021/12/27 00:04:38;;;;;;;26.90;12.10;;;;;;;1.47;52.43;99528.06;4368340;32;34428;-78
2021/12/27 00:07:05;;;;;;;25.08;12.75;;;;;;;1.67;52.31;99525.19;4354919;32;32511;-78
2021/12/27 00:09:35;;;;;;;28.17;13.50;;;;;;;1.76;52.28;99521.53;4366681;32;32598;-79
2021/12/27 00:12:03;;;;;;;28.50;13.57;;;;;;;1.75;51.91;99517.12;4367159;32;33254;-79
2021/12/27 00:14:31;;;;;;;27.95;14.27;;;;;;;1.89;51.36;99514.72;4366757;32;34008;-77
2021/12/27 00:16:58;;;;;;;25.97;12.83;;;;;;;1.95;51.05;99513.25;4366328;32;33769;-78
2021/12/27 00:19:26;;;;;;;22.95;12.35;;;;;;;1.95;51.03;99494.28;4366574;32;33117;-77
2021/12/27 00:21:54;;;;;;;25.35;13.05;;;;;;;1.86;51.59;99504.22;4366287;32;33062;-78
2021/12/27 00:24:21;;;;;;;24.23;12.03;;;;;;;1.89;51.64;99497.63;4379041;32;34414;-79
2021/12/27 00:26:49;;;;;;;25.30;12.95;;;;;;;1.88;51.54;99510.31;4354404;32;32502;-78
2021/12/27 00:29:17;;;;;;;29.27;12.67;;;;;;;1.85;51.86;99512.47;4354148;32;33371;-78
2021/12/27 00:31:44;;;;;;;29.05;14.80;;;;;;;1.92;51.52;99514.41;4367604;32;33686;-78
2021/12/27 00:34:12;;;;;;;25.33;12.77;;;;;;;1.61;51.48;99513.97;4367963;32;34739;-78
2021/12/27 00:36:42;;;;;;;26.05;13.40;;;;;;;1.62;51.27;99512.97;4368332;32;34024;-78
2021/12/27 00:39:09;;;;;;;27.67;13.63;;;;;;;1.78;51.05;99511.41;4368106;32;33458;-78
2021/12/27 00:41:37;;;;;;;25.08;13.50;;;;;;;1.83;50.84;99514.50;4355726;32;33119;-78
2021/12/27 00:44:04;;;;;;;27.23;15.13;;;;;;;1.83;50.99;99522.59;4367971;32;35316;-78
2021/12/27 00:46:32;;;;;;;26.10;14.00;;;;;;;1.90;51.06;99516.41;4367896;32;34020;-78
2021/12/27 00:49:00;;;;;;;44.00;20.83;;;;;;;1.96;51.10;99514.91;4368356;32;33219;-77
2021/12/27 00:51:27;;;;;;;40.67;18.17;;;;;;;1.98;50.81;99521.00;4368001;32;33559;-78
2021/12/27 00:53:55;;;;;;;31.58;15.73;;;;;;;2.00;50.63;99513.56;4355475;32;33474;-78
2021/12/27 00:56:22;;;;;;;30.57;14.53;;;;;;;1.91;50.78;99506.44;4367780;32;34427;-78
2021/12/27 00:58:50;;;;;;;40.55;17.58;;;;;;;1.97;50.97;99509.34;4367854;32;33406;-78
2021/12/27 01:01:17;;;;;;;48.35;22.65;;;;;;;1.88;51.20;99491.37;4393423;32;34558;-78
2021/12/27 01:03:48;;;;;;;58.60;27.17;;;;;;;1.90;51.20;99496.63;4367867;32;33661;-78
2021/12/27 01:06:15;;;;;;;49.15;24.17;;;;;;;1.85;50.94;99513.34;4380407;32;34623;-78
2021/12/27 01:08:43;;;;;;;43.83;20.80;;;;;;;1.91;50.40;99506.44;4367839;32;33435;-78
2021/12/27 01:11:22;;;;;;;38.85;21.00;;;;;;;2.02;50.23;99500.72;4367608;32;33551;-77
2021/12/27 01:14:09;;;;;;;32.00;17.02;;;;;;;1.86;51.15;99501.50;4367626;32;32875;-75
2021/12/27 01:16:38;;;;;;;29.30;14.48;;;;;;;1.86;51.20;99514.19;4369739;32;34722;-77
2021/12/27 01:19:06;;;;;;;27.15;13.55;;;;;;;2.07;50.25;99511.09;4380401;32;33046;-76
2021/12/27 01:21:34;;;;;;;28.40;13.50;;;;;;;1.83;50.79;99514.50;4379675;32;34429;-75
2021/12/27 01:24:04;;;;;;;28.92;14.30;;;;;;;1.63;50.65;99513.81;4379658;32;34409;-75
2021/12/27 01:26:31;;;;;;;31.35;16.05;;;;;;;1.71;50.41;99508.47;4378415;32;32964;-75
2021/12/27 01:29:06;;;;;;;33.22;19.10;;;;;;;1.90;49.90;99510.16;4367617;32;32648;-75
2021/12/27 01:31:34;;;;;;;33.87;19.07;;;;;;;1.80;49.78;99504.00;4377009;32;33662;-75
2021/12/27 01:34:02;;;;;;;37.60;19.80;;;;;;;1.59;50.31;99502.47;4367522;32;33474;-75
2021/12/27 01:36:32;;;;;;;42.70;21.77;;;;;;;1.74;50.33;99499.19;4367710;32;33880;-75
2021/12/27 01:39:00;;;;;;;33.00;18.83;;;;;;;1.72;50.31;99496.66;4380206;32;33274;-75
2021/12/27 01:41:28;;;;;;;31.05;17.37;;;;;;;1.53;50.79;99497.69;4367153;32;33601;-75
2021/12/27 01:43:55;;;;;;;28.53;15.73;;;;;;;1.76;50.72;99495.34;4367496;32;34822;-75
2021/12/27 01:46:26;;;;;;;30.88;16.85;;;;;;;1.75;50.54;99493.62;4367585;32;34069;-75
2021/12/27 01:48:57;;;;;;;26.80;14.70;;;;;;;1.76;50.70;99495.34;4380547;32;33484;-75
2021/12/27 01:51:28;;;;;;;28.33;14.70;;;;;;;1.91;50.80;99485.63;4380418;32;34216;-75
2021/12/27 01:53:57;;;;;;;24.07;12.27;;;;;;;1.75;51.73;99496.34;4379543;32;33337;-75
2021/12/27 01:56:27;;;;;;;23.00;12.37;;;;;;;1.67;51.86;99498.97;4393523;32;33906;-75
2021/12/27 01:58:56;;;;;;;21.33;11.60;;;;;;;1.68;51.85;99494.41;4379674;32;34153;-75
2021/12/27 02:01:24;;;;;;;25.00;12.15;;;;;;;1.59;51.86;99497.06;4379410;32;34587;-75
2021/12/27 02:03:53;;;;;;;23.83;12.17;;;;;;;1.76;51.51;99492.63;4367325;32;33588;-75
2021/12/27 02:06:21;;;;;;;24.60;12.43;;;;;;;1.89;51.24;99497.63;4379621;32;33939;-75
2021/12/27 02:08:49;;;;;;;22.42;11.85;;;;;;;1.81;51.24;99502.97;4366388;32;33087;-75
2021/12/27 02:11:17;;;;;;;21.58;11.55;;;;;;;1.84;51.15;99495.41;4367446;32;33772;-75
2021/12/27 02:13:46;;;;;;;20.08;10.98;;;;;;;1.62;51.86;99496.75;4367302;32;32945;-75
2021/12/27 02:16:17;;;;;;;19.20;10.57;;;;;;;1.61;52.11;99499.59;4367442;32;34585;-75
2021/12/27 02:18:47;;;;;;;20.83;11.20;;;;;;;1.68;52.05;99497.13;4367399;32;33289;-75
2021/12/27 02:21:16;;;;;;;25.73;11.75;;;;;;;1.75;51.64;99500.91;4367731;32;34650;-76
2021/12/27 02:23:44;;;;;;;20.42;11.57;;;;;;;1.70;51.44;99495.12;4379697;32;35208;-75
2021/12/27 02:26:11;;;;;;;25.48;11.32;;;;;;;1.49;52.16;99488.19;4367192;32;34677;-75
2021/12/27 02:28:39;;;;;;;23.85;11.25;;;;;;;1.29;53.23;99489.38;4379618;32;33441;-75
2021/12/27 02:31:07;;;;;;;21.17;10.53;;;;;;;1.49;52.80;99493.59;4367381;32;33617;-75
2021/12/27 02:33:37;;;;;;;23.90;11.30;;;;;;;1.31;53.22;99496.28;4379701;32;34551;-75
2021/12/27 02:36:05;;;;;;;22.00;11.15;;;;;;;1.58;52.43;99489.94;4367072;32;34621;-75
2021/12/27 02:38:35;;;;;;;21.10;11.43;;;;;;;1.59;52.22;99493.50;4379472;32;33755;-75
2021/12/27 02:41:05;;;;;;;22.23;10.68;;;;;;;1.73;51.98;99481.28;4379334;32;34728;-75
2021/12/27 02:43:33;;;;;;;18.30;10.68;;;;;;;1.53;52.64;99484.16;4366991;32;34574;-75
2021/12/27 02:46:03;;;;;;;18.40;10.02;;;;;;;1.73;52.31;99487.53;4366749;32;34123;-75
2021/12/27 02:48:40;;;;;;;21.55;11.02;;;;;;;1.88;51.81;99477.00;4379674;32;32837;-75
2021/12/27 02:51:08;;;;;;;20.12;11.07;;;;;;;1.69;52.46;99485.31;4379353;32;33431;-75
2021/12/27 02:53:36;;;;;;;22.00;13.03;;;;;;;1.69;52.05;99475.31;4379362;32;34348;-75
2021/12/27 02:56:06;;;;;;;23.63;13.70;;;;;;;1.83;51.69;99471.22;4366790;32;35024;-75
2021/12/27 02:58:34;;;;;;;25.93;13.17;;;;;;;1.79;51.93;99476.09;4392875;32;34161;-75
2021/12/27 03:01:10;;;;;;;20.33;11.23;;;;;;;1.56;52.71;99480.28;4366479;32;33091;-77
2021/12/27 03:03:38;;;;;;;23.23;11.57;;;;;;;1.71;52.69;99475.16;4379106;32;34317;-77
2021/12/27 03:06:08;;;;;;;19.83;10.40;;;;;;;1.62;52.92;99476.97;4366692;32;33960;-78
2021/12/27 03:08:37;;;;;;;21.25;10.60;;;;;;;1.71;52.42;99475.16;4366622;32;32797;-76
2021/12/27 03:11:09;;;;;;;20.55;9.88;;;;;;;1.77;51.90;99472.69;4366673;32;33151;-75
2021/12/27 03:13:45;;;;;;;16.33;9.53;;;;;;;1.78;51.85;99463.56;4379392;32;34941;-75
2021/12/27 03:16:16;;;;;;;21.50;9.70;;;;;;;1.76;51.66;99465.56;4366747;32;34820;-76
2021/12/27 03:18:46;;;;;;;19.15;8.77;;;;;;;1.83;51.46;99465.78;4366742;32;34121;-76
2021/12/27 03:21:23;;;;;;;16.53;8.20;;;;;;;1.77;51.52;99458.31;4380959;32;33670;-76
2021/12/27 03:23:52;;;;;;;16.70;9.20;;;;;;;1.85;51.53;99463.78;4381424;32;34283;-75
2021/12/27 03:26:20;;;;;;;14.70;8.23;;;;;;;1.86;51.58;99460.91;4368555;32;34129;-76
2021/12/27 03:28:48;;;;;;;18.85;9.65;;;;;;;1.94;51.33;99463.69;4368528;32;34296;-75
2021/12/27 03:31:17;;;;;;;15.47;8.80;;;;;;;1.84;51.61;99462.94;4380874;32;33627;-76
2021/12/27 03:33:47;;;;;;;17.90;8.82;;;;;;;1.56;52.90;99466.78;4368694;32;35181;-75
2021/12/27 03:36:23;;;;;;;17.47;8.60;;;;;;;1.70;53.06;99458.09;4355842;32;32448;-76
2021/12/27 03:38:52;;;;;;;18.23;8.77;;;;;;;1.77;52.63;99453.75;4380836;32;33261;-75
2021/12/27 03:41:23;;;;;;;18.37;9.25;;;;;;;1.93;51.89;99455.72;4381014;32;34200;-75
2021/12/27 03:43:54;;;;;;;18.23;8.80;;;;;;;2.01;51.70;99446.78;4381039;32;34443;-76
2021/12/27 03:46:23;;;;;;;19.30;7.60;;;;;;;1.88;51.87;99453.50;4368159;32;34101;-75
2021/12/27 03:48:51;;;;;;;18.70;8.77;;;;;;;1.83;51.63;99452.25;4368456;32;32808;-75
2021/12/27 03:51:19;;;;;;;17.50;9.05;;;;;;;1.75;51.85;99453.06;4368439;32;33436;-75
2021/12/27 03:53:46;;;;;;;15.60;8.43;;;;;;;1.88;51.68;99458.91;4380466;32;34660;-75
2021/12/27 03:56:17;;;;;;;22.50;9.87;;;;;;;1.99;51.42;99461.31;4368212;32;34175;-76
2021/12/27 03:58:55;;;;;;;16.73;8.00;;;;;;;1.78;52.12;99460.84;4368225;32;33340;-75
2021/12/27 04:01:24;;;;;;;14.67;8.03;;;;;;;1.84;52.06;99462.94;4369360;32;33652;-75
2021/12/27 04:04:11;;;;;;;17.13;8.27;;;;;;;1.89;52.36;99455.19;4382734;32;35284;-76
2021/12/27 04:06:58;;;;;;;18.55;8.20;;;;;;;1.96;52.09;99458.06;4372438;32;34929;-75
2021/12/27 04:09:45;;;;;;;20.85;8.50;;;;;;;1.72;52.71;99460.63;4382707;32;34157;-76
2021/12/27 04:12:31;;;;;;;14.93;7.40;;;;;;;1.76;52.56;99462.88;4382637;32;34585;-76
2021/12/27 04:15:17;;;;;;;16.75;8.30;;;;;;;1.74;52.73;99461.34;4372300;32;35025;-76
2021/12/27 04:17:45;;;;;;;15.73;8.10;;;;;;;1.82;52.40;99464.94;4368003;32;33274;-75
2021/12/27 04:20:13;;;;;;;15.17;7.40;;;;;;;1.91;52.18;99457.72;4368478;32;33640;-75
2021/12/27 04:22:40;;;;;;;15.40;8.43;;;;;;;2.08;51.83;99469.47;4367988;32;33664;-76
2021/12/27 04:25:15;;;;;;;17.43;7.53;;;;;;;1.72;52.92;99460.63;4368551;32;34687;-76
2021/12/27 04:27:43;;;;;;;14.73;8.25;;;;;;;1.87;52.87;99457.19;4380264;32;33489;-76
2021/12/27 04:30:11;;;;;;;17.77;9.50;;;;;;;1.48;53.89;99455.88;4368233;32;32795;-75
2021/12/27 04:32:41;;;;;;;16.63;8.20;;;;;;;1.46;53.94;99452.50;4380003;32;33626;-75
2021/12/27 04:35:10;;;;;;;16.92;8.52;;;;;;;1.76;53.13;99453.91;4368066;32;34574;-75
2021/12/27 04:37:38;;;;;;;16.10;7.70;;;;;;;1.86;52.51;99447.38;4368518;32;34762;-75
2021/12/27 04:40:09;;;;;;;15.27;8.63;;;;;;;1.84;52.60;99448.56;4380373;32;33239;-75
2021/12/27 04:42:40;;;;;;;17.77;7.90;;;;;;;1.85;52.60;99444.84;4380319;32;33700;-75
2021/12/27 04:45:14;;;;;;;18.05;8.25;;;;;;;1.89;52.23;99454.34;4380338;32;34354;-76
2021/12/27 04:47:43;;;;;;;18.93;8.80;;;;;;;1.78;52.29;99457.31;4368295;32;32389;-75
2021/12/27 04:50:12;;;;;;;13.88;8.15;;;;;;;1.87;52.15;99456.34;4368279;32;33112;-75
2021/12/27 04:52:39;;;;;;;16.92;7.78;;;;;;;1.93;52.12;99451.16;4380581;32;33703;-75
2021/12/27 04:55:07;;;;;;;18.00;8.68;;;;;;;1.84;52.58;99453.97;4367929;32;34539;-76
2021/12/27 04:57:35;;;;;;;17.13;8.40;;;;;;;1.97;52.18;99457.91;4368076;32;34587;-75
2021/12/27 05:00:05;;;;;;;15.60;8.23;;;;;;;1.97;52.24;99459.78;4380085;32;33214;-76
2021/12/27 05:02:33;;;;;;;17.92;8.32;;;;;;;1.81;52.69;99460.53;4379879;32;33851;-75
2021/12/27 05:05:01;;;;;;;17.95;7.93;;;;;;;1.99;52.20;99455.91;4367851;32;35190;-76
2021/12/27 05:07:28;;;;;;;18.80;7.47;;;;;;;2.02;52.17;99465.56;4379900;32;34192;-75
2021/12/27 05:09:56;;;;;;;13.93;7.62;;;;;;;1.99;52.06;99447.78;4367567;32;33664;-75
2021/12/27 05:12:27;;;;;;;15.60;7.70;;;;;;;2.09;52.06;99460.34;4367823;32;34412;-75
2021/12/27 05:14:54;;;;;;;15.43;7.95;;;;;;;1.87;52.61;99461.75;4368263;32;34435;-75
2021/12/27 05:17:21;;;;;;;16.43;7.90;;;;;;;2.04;52.55;99463.53;4367865;32;34675;-76
2021/12/27 05:19:49;;;;;;;14.57;7.87;;;;;;;1.99;52.55;99453.19;4367672;32;32642;-76
2021/12/27 05:22:17;;;;;;;17.13;8.93;;;;;;;1.86;53.17;99462.78;4367507;32;32879;-76
2021/12/27 05:24:44;;;;;;;14.75;7.47;;;;;;;1.99;52.92;99453.19;4367478;32;35371;-75
2021/12/27 05:27:12;;;;;;;16.27;8.53;;;;;;;1.97;52.83;99459.78;4367682;32;34689;-75
2021/12/27 05:29:40;;;;;;;15.80;8.33;;;;;;;2.17;52.36;99455.84;4367662;32;33271;-76
2021/12/27 05:32:08;;;;;;;17.90;8.55;;;;;;;1.94;52.74;99446.59;4380190;32;33757;-75
2021/12/27 05:34:39;;;;;;;14.90;8.30;;;;;;;2.03;52.81;99450.16;4368042;32;34467;-76
2021/12/27 05:37:11;;;;;;;17.60;8.23;;;;;;;2.24;52.20;99453.31;4355837;32;33277;-75
2021/12/27 05:39:40;;;;;;;15.57;7.93;;;;;;;1.95;52.39;99448.28;4367963;32;34112;-75
2021/12/27 05:42:08;;;;;;;14.75;7.85;;;;;;;2.11;52.10;99445.66;4379994;32;33506;-75
2021/12/27 05:44:35;;;;;;;14.67;7.63;;;;;;;2.21;52.09;99449.09;4366282;32;34736;-75
2021/12/27 05:47:03;;;;;;;12.55;7.53;;;;;;;2.15;52.39;99447.03;4367698;32;33819;-75
2021/12/27 05:49:31;;;;;;;16.53;8.13;;;;;;;2.30;52.13;99442.69;4380131;32;33245;-75
2021/12/27 05:51:58;;;;;;;16.87;8.65;;;;;;;2.29;52.01;99445.56;4367373;32;33880;-75
2021/12/27 05:54:26;;;;;;;18.33;8.00;;;;;;;2.19;52.21;99450.25;4367624;32;34397;-75
2021/12/27 05:56:53;;;;;;;16.23;7.93;;;;;;;2.20;52.34;99450.09;4367806;32;34464;-75
2021/12/27 05:59:23;;;;;;;16.37;7.90;;;;;;;2.22;52.58;99449.94;4379703;32;34427;-76
2021/12/27 06:01:51;;;;;;;18.05;8.00;;;;;;;2.25;52.96;99449.59;4367526;32;33740;-75
2021/12/27 06:04:21;;;;;;;13.33;6.37;;;;;;;2.24;53.35;99443.34;4367672;32;33978;-75
2021/12/27 06:06:49;;;;;;;10.10;4.30;;;;;;;2.31;53.41;99447.09;4380340;32;34442;-73
2021/12/27 06:09:16;;;;;;;15.27;8.20;;;;;;;2.52;68.47;99438.56;4379886;32;34175;-74
2021/12/27 06:11:44;;;;;;;16.10;8.02;;;;;;;2.72;65.38;99433.69;4367544;32;33599;-73
2021/12/27 06:14:12;;;;;;;15.95;7.70;;;;;;;2.85;62.20;99431.34;4367575;32;35446;-74
2021/12/27 06:16:40;;;;;;;15.13;7.47;;;;;;;2.85;59.77;99431.34;4367628;32;34078;-74
2021/12/27 06:19:08;;;;;;;15.87;8.53;;;;;;;2.95;57.07;99436.63;4367392;32;33486;-74
2021/12/27 06:21:36;;;;;;;18.75;8.70;;;;;;;2.80;55.67;99432.88;4367185;32;33019;-75
2021/12/27 06:24:07;;;;;;;21.48;10.00;;;;;;;2.78;54.64;99427.63;4379808;32;34310;-75
2021/12/27 06:26:37;;;;;;;22.92;9.35;;;;;;;2.80;54.06;99428.28;4367400;32;33975;-75
2021/12/27 06:29:05;;;;;;;18.37;9.40;;;;;;;2.71;54.03;99431.16;4379091;32;32327;-80
2021/12/27 06:31:32;;;;;;;18.23;10.27;;;;;;;2.71;53.82;99423.88;4367183;32;33064;-80
2021/12/27 06:34:00;;;;;;;21.52;10.35;;;;;;;2.74;53.73;99434.38;4367234;32;34418;-73
2021/12/27 06:36:28;;;;;;;23.98;11.07;;;;;;;2.74;53.64;99434.38;4366490;32;34132;-76
2021/12/27 06:38:55;;;;;;;26.08;12.10;;;;;;;3.09;64.47;99437.84;4358737;32;33240;-75
2021/12/27 06:41:24;;;;;;;24.20;11.52;;;;;;;3.03;59.46;99433.09;4379217;32;33866;-75
2021/12/27 06:43:52;;;;;;;27.58;12.52;;;;;;;3.10;56.67;99424.13;4379266;32;34271;-74
2021/12/27 06:46:20;;;;;;;24.33;12.88;;;;;;;3.07;55.19;99418.19;4367204;32;34042;-75
2021/12/27 06:48:48;;;;;;;21.12;11.65;;;;;;;3.02;54.19;99423.25;4367231;32;33535;-75
2021/12/27 06:51:15;;;;;;;19.67;10.90;;;;;;;3.09;53.70;99424.28;4379243;32;33712;-75
2021/12/27 06:53:43;;;;;;;20.15;10.50;;;;;;;3.15;53.23;99431.75;4366859;32;34579;-74
2021/12/27 06:56:13;;;;;;;28.33;13.75;;;;;;;3.06;53.05;99424.63;4366467;32;34632;-74
2021/12/27 06:58:40;;;;;;;30.00;14.27;;;;;;;2.92;52.60;99423.41;4366681;32;33323;-74
2021/12/27 07:01:08;;;;;;;24.58;14.50;;;;;;;2.94;52.68;99422.22;4366506;32;33415;-74
2021/12/27 07:03:36;;;;;;;29.23;15.30;;;;;;;2.79;52.87;99423.88;4379172;32;34328;-74
2021/12/27 07:06:04;;;;;;;23.87;13.82;;;;;;;3.07;52.29;99429.03;4366557;32;34079;-74
2021/12/27 07:08:32;;;;;;;25.00;13.18;;;;;;;3.07;52.11;99427.16;4366693;32;33964;-75
2021/12/27 07:11:04;;;;;;;26.62;13.80;;;;;;;2.91;52.11;99427.13;4366634;32;34004;-75
2021/12/27 07:13:32;;;;;;;24.75;14.15;;;;;;;2.96;52.03;99431.03;4366734;32;34533;-75
2021/12/27 07:15:59;;;;;;;35.97;17.15;;;;;;;3.05;51.94;99423.78;4366682;32;33577;-74
2021/12/27 07:18:27;;;;;;;32.53;16.37;;;;;;;3.10;52.01;99420.56;4366295;32;33985;-74
2021/12/27 07:20:55;;;;;;;33.58;18.50;;;;;;;3.11;52.00;99419.53;4366056;32;34312;-75
2021/12/27 07:23:23;;;;;;;26.30;14.10;;;;;;;3.19;52.03;99412.28;4365267;32;34503;-75
2021/12/27 07:25:50;;;;;;;23.62;11.95;;;;;;;3.18;52.04;99421.41;4366332;32;33993;-75
2021/12/27 07:28:21;;;;;;;23.48;12.50;;;;;;;3.10;52.25;99423.28;4366106;32;34070;-75
2021/12/27 07:30:52;;;;;;;33.42;16.70;;;;;;;3.10;52.27;99434.12;4366330;32;33793;-75
2021/12/27 07:33:20;;;;;;;64.07;29.15;;;;;;;3.13;51.98;99431.06;4365722;32;34502;-75
2021/12/27 07:35:48;;;;;;;75.00;34.55;;;;;;;3.13;52.05;99436.50;4378591;32;34711;-74
2021/12/27 07:38:16;;;;;;;34.22;17.35;;;;;;;3.11;52.24;99436.66;4379606;32;33542;-74
2021/12/27 07:40:44;;;;;;;27.60;13.15;;;;;;;3.10;52.37;99436.84;4381310;32;34055;-75
2021/12/27 07:43:11;;;;;;;24.95;14.27;;;;;;;3.26;52.30;99436.81;4368212;32;33018;-74
2021/12/27 07:45:44;;;;;;;23.60;11.65;;;;;;;3.26;52.36;99444.94;4379961;32;34108;-75
2021/12/27 07:48:17;;;;;;;21.05;10.95;;;;;;;3.24;52.22;99431.59;4393918;32;33283;-74
2021/12/27 07:50:45;;;;;;;17.87;10.27;;;;;;;3.24;51.89;99430.75;4393824;32;33736;-75
2021/12/27 07:53:13;;;;;;;23.95;11.95;;;;;;;3.25;51.64;99429.72;4380437;32;34114;-75
2021/12/27 07:55:41;;;;;;;26.67;12.02;;;;;;;3.59;60.84;99429.53;4381170;32;34157;-74
2021/12/27 07:58:09;;;;;;;24.45;13.85;;;;;;;3.52;55.42;99434.78;4392839;32;33043;-74
2021/12/27 08:00:39;;;;;;;26.92;15.65;;;;;;;3.57;53.50;99431.56;4380785;32;33679;-74
2021/12/27 08:03:07;;;;;;;31.00;16.75;;;;;;;3.65;52.36;99420.72;4406954;32;35362;-74
2021/12/27 08:05:35;;;;;;;28.25;15.68;;;;;;;3.66;52.48;99422.41;4380866;32;33882;-74
2021/12/27 08:08:02;;;;;;;25.67;14.23;;;;;;;3.84;51.47;99428.50;4382689;32;34181;-75
2021/12/27 08:10:30;;;;;;;29.40;13.90;;;;;;;3.82;51.17;99425.09;4383332;32;33803;-74
2021/12/27 08:12:58;;;;;;;24.98;12.37;;;;;;;3.62;51.38;99427.31;4383263;32;35092;-75
2021/12/27 08:15:26;;;;;;;25.48;12.85;;;;;;;3.79;51.13;99424.59;4382818;32;33842;-74
2021/12/27 08:17:53;;;;;;;38.28;19.12;;;;;;;3.85;50.74;99424.75;4395715;32;34286;-74
2021/12/27 08:20:21;;;;;;;38.30;22.02;;;;;;;3.69;50.99;99422.06;4381934;32;34523;-74
2021/12/27 08:22:49;;;;;;;62.33;33.80;;;;;;;4.11;50.35;99415.50;4383015;32;33085;-74
2021/12/27 08:25:17;;;;;;;53.58;28.02;;;;;;;4.11;50.04;99416.34;4382950;32;34644;-74
2021/12/27 08:27:45;;;;;;;30.85;16.05;;;;;;;3.93;49.91;99419.28;4395457;32;34414;-74
2021/12/27 08:30:13;;;;;;;20.42;11.70;;;;;;;3.79;49.88;99417.31;4370510;32;33884;-74
2021/12/27 08:32:43;;;;;;;17.70;9.93;;;;;;;3.83;49.22;99421.37;4395482;32;34270;-74
2021/12/27 08:35:13;;;;;;;19.65;10.82;;;;;;;3.77;48.01;99419.34;4395587;32;34771;-74
2021/12/27 08:37:43;;;;;;;20.40;10.57;;;;;;;3.90;46.61;99410.66;4380011;32;34316;-74
2021/12/27 08:40:14;;;;;;;23.87;12.68;;;;;;;3.90;46.96;99424.25;4383175;32;33641;-74
2021/12/27 08:42:42;;;;;;;21.20;10.95;;;;;;;3.76;47.00;99425.78;4382882;32;35140;-74
2021/12/27 08:45:11;;;;;;;24.70;10.82;;;;;;;3.68;46.21;99427.66;4382810;32;33793;-74
2021/12/27 08:47:39;;;;;;;20.08;10.23;;;;;;;3.75;45.58;99423.25;4370793;32;33229;-74
2021/12/27 08:50:08;;;;;;;25.05;10.70;;;;;;;3.97;45.46;99430.66;4368095;32;34498;-74
2021/12/27 08:52:36;;;;;;;22.85;10.70;;;;;;;3.92;45.21;99441.16;4380301;32;34442;-74
2021/12/27 08:55:04;;;;;;;21.12;10.32;;;;;;;4.00;44.75;99426.72;4379997;32;34179;-74
2021/12/27 08:57:32;;;;;;;24.85;13.77;;;;;;;3.91;45.13;99434.91;4379960;32;33210;-74
2021/12/27 09:00:05;;;;;;;17.77;9.05;;;;;;;4.01;44.20;99434.72;4379955;32;33657;-74
2021/12/27 09:02:32;;;;;;;18.40;9.85;;;;;;;4.02;43.29;99433.69;4380031;32;34708;-74
2021/12/27 09:05:01;;;;;;;19.48;9.02;;;;;;;3.77;43.78;99435.63;4367650;32;33713;-74
2021/12/27 09:07:29;;;;;;;18.52;9.10;;;;;;;3.76;43.59;99430.37;4380155;32;33287;-74
2021/12/27 09:09:57;;;;;;;12.52;7.43;;;;;;;3.89;43.51;99430.69;4380241;32;34601;-74
2021/12/27 09:12:25;;;;;;;15.75;7.87;;;;;;;3.83;43.56;99426.81;4375806;32;34156;-74
2021/12/27 09:14:52;;;;;;;14.77;7.50;;;;;;;4.09;43.37;99431.97;4392297;32;33916;-74
2021/12/27 09:17:20;;;;;;;15.02;7.37;;;;;;;4.13;43.22;99427.91;4379386;32;33500;-74
2021/12/27 09:19:50;;;;;;;16.27;8.43;;;;;;;4.16;42.07;99424.81;4380035;32;33861;-74
2021/12/27 09:22:18;;;;;;;16.95;8.10;;;;;;;4.34;42.47;99424.59;4378301;32;34603;-74
2021/12/27 09:24:50;;;;;;;14.65;7.75;;;;;;;4.37;42.32;99431.56;4379906;32;34930;-75
2021/12/27 09:27:18;;;;;;;14.23;8.02;;;;;;;4.43;42.40;99433.56;4392024;32;33454;-74
2021/12/27 09:29:46;;;;;;;12.57;6.60;;;;;;;4.47;41.92;99430.31;4379818;32;33254;-74
2021/12/27 09:32:14;;;;;;;14.52;7.05;;;;;;;4.32;41.34;99423.94;4392265;32;34468;-74
2021/12/27 09:34:45;;;;;;;12.48;7.20;;;;;;;4.20;40.30;99417.19;4392394;32;33783;-74
2021/12/27 09:37:13;;;;;;;22.13;11.25;;;;;;;4.35;40.78;99414.59;4379542;32;33380;-76
2021/12/27 09:39:41;;;;;;;20.77;9.65;;;;;;;4.60;47.38;99406.13;4391845;32;33370;-74
2021/12/27 09:42:08;;;;;;;13.05;6.95;;;;;;;4.46;40.51;99408.75;4392320;32;34416;-74
2021/12/27 09:44:39;;;;;;;14.65;6.97;;;;;;;4.37;39.39;99404.38;4379710;32;34116;-74
2021/12/27 09:47:06;;;;;;;14.87;6.30;;;;;;;4.54;39.93;99398.72;4370156;32;33444;-74
2021/12/27 09:49:34;;;;;;;13.07;6.45;;;;;;;4.50;39.50;99394.66;4366675;32;34329;-75
2021/12/27 09:52:04;;;;;;;14.55;7.03;;;;;;;4.68;39.16;99388.06;4366954;32;32895;-75
2021/12/27 09:54:32;;;;;;;12.73;6.82;;;;;;;4.71;38.82;99385.84;4379597;32;34613;-75
2021/12/27 09:56:59;;;;;;;15.55;7.82;;;;;;;4.78;39.28;99389.53;4379622;32;33237;-75
2021/12/27 09:59:31;;;;;;;14.32;7.03;;;;;;;4.99;38.37;99385.34;4365836;32;33852;-75
2021/12/27 10:02:00;;;;;;;14.07;6.47;;;;;;;4.52;39.24;99389.88;4367789;32;35107;-75
2021/12/27 10:04:31;;;;;;;13.98;6.75;;;;;;;4.44;38.87;99386.34;4367340;32;34655;-75
2021/12/27 10:07:01;;;;;;;11.77;6.12;;;;;;;4.49;39.31;99390.25;4379634;32;34240;-75
2021/12/27 10:09:34;;;;;;;13.40;7.07;;;;;;;4.54;38.40;99387.84;4367774;32;35192;-75
2021/12/27 10:12:03;;;;;;;13.57;6.45;;;;;;;4.71;38.39;99383.13;4379927;32;34162;-75
2021/12/27 10:14:31;;;;;;;14.45;7.37;;;;;;;4.76;38.20;99380.72;4379830;32;34029;-75
2021/12/27 10:17:10;;;;;;;11.38;5.78;;;;;;;4.93;38.44;99378.75;4379469;32;33967;-74
2021/12/27 10:19:38;;;;;;;12.35;6.32;;;;;;;5.02;38.25;99380.38;4379546;32;33453;-74
2021/12/27 10:22:11;;;;;;;17.70;6.37;;;;;;;5.16;38.24;99385.03;4367345;32;34209;-74
2021/12/27 10:24:39;;;;;;;13.15;6.43;;;;;;;4.90;37.03;99376.37;4392755;32;34029;-74
2021/12/27 10:27:06;;;;;;;14.98;7.05;;;;;;;5.01;37.89;99369.69;4367214;32;33455;-74
2021/12/27 10:29:36;;;;;;;10.73;6.18;;;;;;;4.84;37.01;99371.66;4366411;32;34492;-74
2021/12/27 10:32:10;;;;;;;16.15;8.65;;;;;;;4.85;38.12;99376.94;4379606;32;34496;-74
2021/12/27 10:34:45;;;;;;;16.17;7.40;;;;;;;5.02;37.42;99374.09;4379536;32;33940;-74
2021/12/27 10:37:20;;;;;;;13.70;5.95;;;;;;;4.98;37.07;99387.22;4377602;32;33285;-74
2021/12/27 10:39:59;;;;;;;10.73;6.05;;;;;;;5.30;36.68;99378.78;4377625;32;34415;-74
2021/12/27 10:42:31;;;;;;;12.60;6.00;;;;;;;5.28;36.65;99380.84;4365709;32;34402;-74
2021/12/27 10:45:03;;;;;;;11.60;5.87;;;;;;;5.54;36.82;99376.87;4363333;32;33703;-75
2021/12/27 10:47:35;;;;;;;14.32;6.60;;;;;;;5.11;36.65;99384.75;4377829;32;33170;-74
2021/12/27 10:50:09;;;;;;;15.70;6.80;;;;;;;5.37;36.96;99368.00;4378434;32;33683;-75
2021/12/27 10:52:46;;;;;;;15.50;6.72;;;;;;;5.60;37.07;99373.41;4392334;32;35236;-75
2021/12/27 10:55:38;;;;;;;13.93;6.72;;;;;;;5.58;36.84;99381.78;4378348;32;33615;-74
2021/12/27 10:58:12;;;;;;;17.08;6.60;;;;;;;5.41;36.94;99369.34;4378413;32;34478;-75
2021/12/27 11:00:41;;;;;;;11.98;6.90;;;;;;;5.44;37.47;99374.41;4378250;32;33029;-75
2021/12/27 11:03:23;;;;;;;13.00;6.53;;;;;;;5.50;37.71;99365.50;4377950;32;35069;-75
2021/12/27 11:05:51;;;;;;;12.73;7.22;;;;;;;5.51;36.73;99350.03;4378112;32;34345;-75
2021/12/27 11:08:22;;;;;;;17.35;8.45;;;;;;;5.45;36.02;99357.06;4366083;32;33419;-75
2021/12/27 11:10:50;;;;;;;15.40;8.15;;;;;;;5.51;35.82;99355.47;4366079;32;33943;-75
2021/12/27 11:13:22;;;;;;;22.90;10.13;;;;;;;5.59;35.98;99350.78;4365449;32;34374;-75
2021/12/27 11:15:52;;;;;;;18.98;9.85;;;;;;;5.53;36.27;99353.41;4378171;32;33916;-75
2021/12/27 11:18:21;;;;;;;18.75;9.80;;;;;;;5.65;36.11;99342.91;4365969;32;33310;-75
2021/12/27 11:20:57;;;;;;;15.07;7.37;;;;;;;5.55;35.87;99359.50;4365595;32;34603;-75
2021/12/27 11:23:26;;;;;;;;;;;;;;;5.55;36.02;99357.62;4378276;32;34210;-75
2021/12/27 11:26:03;;;;;;;18.42;8.40;;;;;;;5.71;36.09;99351.19;4365300;32;34281;-75
2021/12/27 11:28:34;;;;;;;;;;;;;;;5.57;35.43;99336.53;4392035;32;34106;-75
2021/12/27 11:31:24;;;;;;;19.65;9.38;;;;;;;5.81;35.62;99348.19;4376198;32;33638;-75
2021/12/27 11:33:53;;;;;;;19.77;9.73;;;;;;;5.81;36.36;99340.03;4384925;32;34241;-75
2021/12/27 11:36:25;;;;;;;17.35;9.60;;;;;;;5.72;36.49;99338.44;4390052;32;33709;-75
2021/12/27 11:38:57;;;;;;;20.02;10.00;;;;;;;5.81;36.81;99337.31;4362372;32;33278;-75
2021/12/27 11:41:34;;;;;;;16.67;9.40;;;;;;;5.65;36.69;99337.47;4364612;32;33923;-75